Wednesday, April 25, 2018, 5:00 AM EDT
Back to Local

KPVC, Provincetown, Provincetown Municipal Airport

Location: Provincetown, MA, United States Lat: 42.067
Local Time: 5:00 AM EDT ( 9:00 GMT) Lon: -70.217
Time Zone: US/Eastern Elev: 6 ft

Show me the last for .
Show Coded

Time T Td Feel RH Dir Speed Gust Alt SLP Vis Weather Sky Remarks
2018-04-25 03:56 51 45 - 79 160° 8 - 30.19 30.19 10 SCT070 None
2018-04-25 02:56 50 45 47 82 160° 7 - 30.21 30.21 10 FEW070 None
2018-04-25 01:56 49 43 45 79 160° 8 - 30.24 30.23 10 CLR 6-hr Min Temp (2am): 48.0°F
6-hr Max Temp (2am): 48.9°F
2018-04-25 00:56 48 38 45 67 170° 6 - 30.27 30.27 10 SCT060 24-hr Min Temp (1am): 41.0°F
24-hr Max Temp (1am): 60.1°F
2018-04-24 23:56 48 33 43 56 170° 12 - 30.28 30.28 10 CLR None
2018-04-24 22:56 49 33 45 54 170° 9 - 30.30 30.29 10 CLR None
2018-04-24 21:56 49 40 45 70 180° 10 - 30.32 30.31 10 SCT060 None
2018-04-24 20:56 49 41 42 73 180° 13 21 30.32 30.32 10 CLR None
2018-04-24 19:56 50 40 46 68 180° 12 - 30.30 30.30 10 CLR 6-hr Min Temp (8pm): 48.9°F
6-hr Max Temp (8pm): 59.0°F
2018-04-24 18:56 51 36 - 56 180° 13 - 30.31 30.31 10 CLR None
2018-04-24 17:56 53 31 - 42 190° 16 22 30.32 30.32 10 CLR None
2018-04-24 16:56 55 35 - 46 190° 14 23 30.33 30.32 10 CLR None
2018-04-24 15:56 56 41 - 57 190° 15 24 30.34 30.34 10 CLR None
2018-04-24 14:56 58 43 - 57 200° 14 21 30.36 30.35 10 CLR None
2018-04-24 13:56 59 43 - 55 200° 18 22 30.38 30.37 10 CLR 6-hr Min Temp (2pm): 46.9°F
6-hr Max Temp (2pm): 60.1°F
2018-04-24 12:56 60 39 - 45 190° 16 22 30.38 30.38 10 CLR None
2018-04-24 11:56 57 38 - 48 190° 15 22 30.41 30.41 10 CLR None
2018-04-24 09:56 53 39 - 58 200° 13 - 30.44 30.44 10 CLR None
2018-04-24 08:56 49 39 45 68 200° 9 - 30.45 30.45 10 CLR None
2018-04-24 07:56 47 38 42 70 200° 12 - 30.45 30.45 10 CLR 6-hr Min Temp (8am): 41.0°F
6-hr Max Temp (8am): 46.9°F
2018-04-24 06:56 44 38 39 78 200° 10 - 30.44 30.44 10 CLR None
2018-04-24 05:56 42 36 37 78 190° 8 - 30.43 30.42 10 CLR None

Support USWX by starting your Amazon purchase here.